createdAt,value
2023-04-18T00:00:46.447Z,8.77
2023-04-18T00:03:16.482Z,9.57
2023-04-18T00:05:48.342Z,9.45
2023-04-18T00:08:15.852Z,9.55
2023-04-18T00:10:42.846Z,9.43
2023-04-18T00:13:10.370Z,9.65
2023-04-18T00:15:37.350Z,8.73
2023-04-18T00:18:06.380Z,9.55
2023-04-18T00:20:33.618Z,9.15
2023-04-18T00:23:00.988Z,10.07
2023-04-18T00:25:28.208Z,9.95
2023-04-18T00:27:55.200Z,10.05
2023-04-18T00:30:22.292Z,8.43
2023-04-18T00:32:49.456Z,9.98
2023-04-18T00:35:16.481Z,9.60
2023-04-18T00:37:43.698Z,9.32
2023-04-18T00:40:11.252Z,9.13
2023-04-18T00:42:38.358Z,10.35
2023-04-18T00:45:06.094Z,8.75
2023-04-18T00:47:33.235Z,9.75
2023-04-18T00:50:00.589Z,9.15
2023-04-18T00:52:28.051Z,10.38
2023-04-18T00:54:55.791Z,10.50
2023-04-18T00:57:22.910Z,9.15
2023-04-18T00:59:50.480Z,9.73
2023-04-18T01:02:17.773Z,10.45
2023-04-18T01:04:44.922Z,10.82
2023-04-18T01:07:12.125Z,10.07
2023-04-18T01:09:39.942Z,10.85
2023-04-18T01:12:07.031Z,10.13
2023-04-18T01:14:33.960Z,11.23
2023-04-18T01:17:01.796Z,10.55
2023-04-18T01:19:28.920Z,11.10
2023-04-18T01:21:55.971Z,11.48
2023-04-18T01:24:24.811Z,11.77
2023-04-18T01:26:51.823Z,9.98
2023-04-18T01:29:18.760Z,10.77
2023-04-18T01:31:46.217Z,11.10
2023-04-18T01:34:13.619Z,10.63
2023-04-18T01:36:41.338Z,10.10
2023-04-18T01:39:08.498Z,10.98
2023-04-18T01:41:35.590Z,10.57
2023-04-18T01:44:02.789Z,10.90
2023-04-18T01:46:29.969Z,11.05
2023-04-18T01:48:57.886Z,11.77
2023-04-18T01:51:25.293Z,11.52
2023-04-18T01:53:52.290Z,11.95
2023-04-18T01:56:19.373Z,11.95
2023-04-18T01:58:46.373Z,11.65
2023-04-18T02:01:13.560Z,12.05
2023-04-18T02:03:41.009Z,12.65
2023-04-18T02:06:08.330Z,11.45
2023-04-18T02:08:36.221Z,11.95
2023-04-18T02:11:03.764Z,11.65
2023-04-18T02:13:31.272Z,12.55
2023-04-18T02:15:58.284Z,12.27
2023-04-18T02:18:26.132Z,11.90
2023-04-18T02:20:53.172Z,12.07
2023-04-18T02:23:20.130Z,11.68
2023-04-18T02:25:47.120Z,11.48
2023-04-18T02:28:14.075Z,12.25
2023-04-18T02:30:41.049Z,11.77
2023-04-18T02:33:08.180Z,11.35
2023-04-18T02:35:37.756Z,13.30
2023-04-18T02:38:04.785Z,12.37
2023-04-18T02:40:31.756Z,12.70
2023-04-18T02:42:58.799Z,11.30
2023-04-18T02:45:25.794Z,12.88
2023-04-18T02:47:55.871Z,11.85
2023-04-18T02:50:24.153Z,11.90
2023-04-18T02:52:51.221Z,12.23
2023-04-18T02:55:18.271Z,12.68
2023-04-18T02:57:45.230Z,12.98
2023-04-18T03:00:13.767Z,13.50
2023-04-18T03:02:41.165Z,12.10
2023-04-18T03:05:08.541Z,12.15
2023-04-18T03:07:35.727Z,11.95
2023-04-18T03:10:02.732Z,12.85
2023-04-18T03:12:29.732Z,12.82
2023-04-18T03:14:56.756Z,15.40
2023-04-18T03:17:23.901Z,13.30
2023-04-18T03:19:50.946Z,13.55
2023-04-18T03:22:18.130Z,13.15
2023-04-18T03:24:45.154Z,14.02
2023-04-18T03:27:13.607Z,12.95
2023-04-18T03:29:40.681Z,12.65
2023-04-18T03:32:07.650Z,13.68
2023-04-18T03:34:34.633Z,13.85
2023-04-18T03:37:01.710Z,13.40
2023-04-18T03:39:28.698Z,12.07
2023-04-18T03:41:55.762Z,12.50
2023-04-18T03:44:22.758Z,13.25
2023-04-18T03:46:49.793Z,14.90
2023-04-18T03:49:16.748Z,14.57
2023-04-18T03:51:48.087Z,13.50
2023-04-18T03:54:17.961Z,12.90
2023-04-18T03:59:12.295Z,12.98
2023-04-18T04:01:39.451Z,13.00
2023-04-18T04:04:06.854Z,12.25
2023-04-18T04:06:33.940Z,13.60
2023-04-18T04:09:01.294Z,14.00
2023-04-18T04:11:28.403Z,12.77
2023-04-18T04:13:55.521Z,14.02
2023-04-18T04:16:22.751Z,13.05
2023-04-18T04:18:49.778Z,13.80
2023-04-18T04:21:18.425Z,13.18
2023-04-18T04:23:46.508Z,12.13
2023-04-18T04:26:15.267Z,13.70
2023-04-18T04:28:43.228Z,13.60
2023-04-18T04:31:10.684Z,14.00
2023-04-18T04:33:39.251Z,13.45
2023-04-18T04:36:09.386Z,14.87
2023-04-18T04:38:38.595Z,13.18
2023-04-18T04:41:08.017Z,14.87
2023-04-18T04:43:35.101Z,13.30
2023-04-18T04:46:04.654Z,14.27
2023-04-18T04:48:31.755Z,15.02
2023-04-18T04:51:00.932Z,14.55
2023-04-18T04:53:32.482Z,14.53
2023-04-18T04:55:59.613Z,14.23
2023-04-18T04:58:26.803Z,14.85
2023-04-18T05:00:54.057Z,15.73
2023-04-18T05:03:21.276Z,14.18
2023-04-18T05:05:48.856Z,14.57
2023-04-18T05:08:15.973Z,15.20
2023-04-18T05:10:43.582Z,15.52
2023-04-18T05:13:10.625Z,14.95
2023-04-18T05:15:37.734Z,14.87
2023-04-18T05:18:05.135Z,15.40
2023-04-18T05:20:32.284Z,14.98
2023-04-18T05:22:59.357Z,15.05
2023-04-18T05:25:27.184Z,16.20
2023-04-18T05:27:54.171Z,15.05
2023-04-18T05:30:21.514Z,15.88
2023-04-18T05:32:48.639Z,14.75
2023-04-18T05:35:15.790Z,14.13
2023-04-18T05:37:42.834Z,15.77
2023-04-18T05:40:10.586Z,15.00
2023-04-18T05:42:37.747Z,15.50
2023-04-18T05:45:05.179Z,14.90
2023-04-18T05:47:33.889Z,15.40
2023-04-18T05:50:01.177Z,13.98
2023-04-18T05:52:28.225Z,14.10
2023-04-18T05:54:55.169Z,13.98
2023-04-18T05:57:22.289Z,15.43
2023-04-18T05:59:49.269Z,14.43
2023-04-18T06:02:16.305Z,14.85
2023-04-18T06:04:43.667Z,16.20
2023-04-18T06:07:10.998Z,18.20
2023-04-18T06:09:38.036Z,14.40
2023-04-18T06:12:05.313Z,17.90
2023-04-18T06:14:32.581Z,16.35
2023-04-18T06:16:59.851Z,18.35
2023-04-18T06:19:26.993Z,14.80
2023-04-18T06:21:54.183Z,14.23
2023-04-18T06:24:21.275Z,14.43
2023-04-18T06:26:48.337Z,13.57
2023-04-18T06:29:15.591Z,13.15
2023-04-18T06:31:45.715Z,11.90
2023-04-18T06:34:13.449Z,12.88
2023-04-18T06:36:40.710Z,13.65
2023-04-18T06:39:07.775Z,12.80
2023-04-18T06:41:35.024Z,11.85
2023-04-18T06:44:03.406Z,11.60
2023-04-18T06:46:32.511Z,12.63
2023-04-18T06:49:00.033Z,12.40
2023-04-18T06:51:27.729Z,11.52
2023-04-18T06:53:54.862Z,12.05
2023-04-18T06:56:22.588Z,12.05
2023-04-18T06:58:50.453Z,12.15
2023-04-18T07:01:17.598Z,12.77
2023-04-18T07:03:44.855Z,11.90
2023-04-18T07:06:12.094Z,12.00
2023-04-18T07:08:39.227Z,11.63
2023-04-18T07:11:07.048Z,11.93
2023-04-18T07:13:34.087Z,12.32
2023-04-18T07:16:01.786Z,12.88
2023-04-18T07:18:37.469Z,13.35
2023-04-18T07:21:09.147Z,12.88
2023-04-18T07:23:36.299Z,11.20
2023-04-18T07:26:03.911Z,13.40
2023-04-18T07:28:32.575Z,12.52
2023-04-18T07:30:59.840Z,14.02
2023-04-18T07:33:27.139Z,12.50
2023-04-18T07:35:54.240Z,12.50
2023-04-18T07:38:21.320Z,15.20
2023-04-18T07:40:57.530Z,17.75
2023-04-18T07:43:24.815Z,16.70
2023-04-18T07:45:52.807Z,17.60
2023-04-18T07:48:22.902Z,18.65
2023-04-18T07:50:50.026Z,18.40
2023-04-18T07:53:17.307Z,14.43
2023-04-18T07:55:44.848Z,15.77
2023-04-18T07:58:11.958Z,14.30
2023-04-18T08:00:39.543Z,15.25
2023-04-18T08:03:11.376Z,13.68
2023-04-18T08:05:39.909Z,14.15
2023-04-18T08:08:08.568Z,14.38
2023-04-18T08:10:36.256Z,13.82
2023-04-18T08:13:03.736Z,12.25
2023-04-18T08:15:33.065Z,11.98
2023-04-18T08:18:01.357Z,11.77
2023-04-18T08:20:28.489Z,13.32
2023-04-18T08:25:25.539Z,13.38
2023-04-18T08:27:52.646Z,12.27
2023-04-18T08:30:19.898Z,12.18
2023-04-18T08:32:47.196Z,11.05
2023-04-18T08:35:14.345Z,11.85
2023-04-18T08:37:43.527Z,12.25
2023-04-18T08:40:11.049Z,10.23
2023-04-18T08:42:39.660Z,12.60
2023-04-18T08:45:07.342Z,12.13
2023-04-18T08:47:36.665Z,14.80
2023-04-18T08:50:05.814Z,14.77
2023-04-18T08:52:34.492Z,12.17
2023-04-18T08:55:03.021Z,14.43
2023-04-18T08:57:31.323Z,12.90
2023-04-18T09:00:01.025Z,11.38
2023-04-18T09:02:47.238Z,11.35
2023-04-18T09:05:19.964Z,12.07
2023-04-18T09:07:48.609Z,12.20
2023-04-18T09:10:36.864Z,12.55
2023-04-18T09:13:04.573Z,10.85
2023-04-18T09:15:31.714Z,11.30
2023-04-18T09:18:02.659Z,11.20
2023-04-18T09:20:42.454Z,10.07
2023-04-18T09:23:11.670Z,9.77
2023-04-18T09:25:45.401Z,11.18
2023-04-18T09:28:33.473Z,11.05
2023-04-18T09:31:22.882Z,10.27
2023-04-18T09:33:57.234Z,11.98
2023-04-18T09:36:28.112Z,12.85
2023-04-18T09:38:57.089Z,9.15
2023-04-18T09:41:24.701Z,8.10
2023-04-18T09:44:11.676Z,8.07
2023-04-18T09:46:41.384Z,9.60
2023-04-18T09:49:10.822Z,11.18
2023-04-18T09:51:40.708Z,9.90
2023-04-18T09:54:11.345Z,9.88
2023-04-18T09:56:44.191Z,9.05
2023-04-18T09:59:12.558Z,9.52
2023-04-18T10:01:45.284Z,9.20
2023-04-18T10:04:13.963Z,10.52
2023-04-18T10:06:42.442Z,9.60
2023-04-18T10:09:10.551Z,10.00
2023-04-18T10:11:37.753Z,8.10
2023-04-18T10:14:12.019Z,8.25
2023-04-18T10:16:39.966Z,8.65
2023-04-18T10:19:30.361Z,9.15
2023-04-18T10:21:59.861Z,8.38
2023-04-18T10:24:46.204Z,9.30
2023-04-18T10:27:13.411Z,7.62
2023-04-18T10:29:51.461Z,7.45
2023-04-18T10:32:23.792Z,8.70
2023-04-18T10:34:53.770Z,8.25
2023-04-18T10:37:20.980Z,6.85
2023-04-18T10:40:00.481Z,8.63
2023-04-18T10:42:46.050Z,9.18
2023-04-18T10:45:24.136Z,6.55
2023-04-18T10:47:51.700Z,8.10
2023-04-18T10:50:18.699Z,7.85
2023-04-18T10:52:45.832Z,7.18
2023-04-18T10:55:19.248Z,7.55
2023-04-18T10:57:48.684Z,6.93
2023-04-18T11:00:18.189Z,8.43
2023-04-18T11:03:00.626Z,7.15
2023-04-18T11:05:29.473Z,5.55
2023-04-18T11:07:56.584Z,5.25
2023-04-18T11:10:26.992Z,5.62
2023-04-18T11:12:56.728Z,5.25
2023-04-18T11:17:58.333Z,4.75
2023-04-18T11:20:25.889Z,3.90
2023-04-18T11:22:56.454Z,4.72
2023-04-18T11:25:38.082Z,5.50
2023-04-18T11:28:06.918Z,4.30
2023-04-18T11:30:39.865Z,3.90
2023-04-18T11:33:14.251Z,4.75
2023-04-18T11:35:43.750Z,4.12
2023-04-18T11:38:13.361Z,3.80
2023-04-18T11:43:08.128Z,3.90
2023-04-18T11:45:35.216Z,3.17
2023-04-18T11:48:02.879Z,3.80
2023-04-18T11:50:37.443Z,4.78
2023-04-18T11:53:04.552Z,6.80
2023-04-18T11:55:31.727Z,6.47
2023-04-18T11:58:00.423Z,7.00
2023-04-18T12:00:34.798Z,5.75
2023-04-18T12:03:04.935Z,5.32
2023-04-18T12:05:34.355Z,7.57
2023-04-18T12:10:36.405Z,4.78
2023-04-18T12:13:08.369Z,5.12
2023-04-18T12:15:39.861Z,5.05
2023-04-18T12:18:10.364Z,4.55
2023-04-18T12:20:54.341Z,5.43
2023-04-18T12:23:36.409Z,4.68
2023-04-18T12:26:06.552Z,6.57
2023-04-18T12:28:35.480Z,6.28
2023-04-18T12:31:03.050Z,6.17
2023-04-18T12:33:31.212Z,6.60
2023-04-18T12:35:58.310Z,6.15
2023-04-18T12:38:25.493Z,5.37
2023-04-18T12:40:52.716Z,6.95
2023-04-18T12:43:20.158Z,6.53
2023-04-18T12:45:47.799Z,5.62
2023-04-18T12:48:14.978Z,7.75
2023-04-18T12:50:42.264Z,5.80
2023-04-18T12:53:09.328Z,5.25
2023-04-18T12:55:38.676Z,5.93
2023-04-18T12:58:05.761Z,6.03
2023-04-18T13:00:33.241Z,6.22
2023-04-18T13:03:01.417Z,6.65
2023-04-18T13:05:32.892Z,6.12
2023-04-18T13:08:12.845Z,5.75
2023-04-18T13:10:44.011Z,5.12
2023-04-18T13:13:11.213Z,4.50
2023-04-18T13:15:42.005Z,5.60
2023-04-18T13:18:13.100Z,4.47
2023-04-18T13:20:41.687Z,4.10
2023-04-18T13:23:08.848Z,4.43
2023-04-18T13:25:36.100Z,4.82
2023-04-18T13:28:03.899Z,3.87
2023-04-18T13:30:32.048Z,4.47
2023-04-18T13:32:59.252Z,3.35
2023-04-18T13:35:26.444Z,2.83
2023-04-18T13:37:53.573Z,2.95
2023-04-18T13:40:20.784Z,2.87
2023-04-18T13:42:48.620Z,3.45
2023-04-18T13:45:15.937Z,4.30
2023-04-18T13:47:43.061Z,3.78
2023-04-18T13:50:10.452Z,3.40
2023-04-18T13:52:37.515Z,3.05
2023-04-18T13:55:05.249Z,3.55
2023-04-18T13:57:34.817Z,5.20
2023-04-18T14:00:01.935Z,5.30
2023-04-18T14:02:29.245Z,4.65
2023-04-18T14:04:58.980Z,4.18
2023-04-18T14:09:55.034Z,3.08
2023-04-18T14:12:22.659Z,3.33
2023-04-18T14:14:49.732Z,3.40
2023-04-18T14:17:16.765Z,3.58
2023-04-18T14:19:43.805Z,3.80
2023-04-18T14:22:11.163Z,4.50
2023-04-18T14:24:38.263Z,3.53
2023-04-18T14:27:05.293Z,3.35
2023-04-18T14:29:32.408Z,4.07
2023-04-18T14:31:59.434Z,3.65
2023-04-18T14:34:26.494Z,4.43
2023-04-18T14:36:53.496Z,3.83
2023-04-18T14:39:20.600Z,3.47
2023-04-18T14:41:47.582Z,3.50
2023-04-18T14:44:14.640Z,3.58
2023-04-18T14:46:42.812Z,4.53
2023-04-18T14:49:09.835Z,5.62
2023-04-18T14:51:36.823Z,7.20
2023-04-18T14:54:06.290Z,4.82
2023-04-18T14:56:33.346Z,4.97
2023-04-18T14:59:00.310Z,4.75
2023-04-18T15:01:27.364Z,5.40
2023-04-18T15:03:54.754Z,5.47
2023-04-18T15:06:23.260Z,6.05
2023-04-18T15:08:50.115Z,7.25
2023-04-18T15:11:17.029Z,6.75
2023-04-18T15:13:44.721Z,6.00
2023-04-18T15:16:11.757Z,6.70
2023-04-18T15:18:38.699Z,7.80
2023-04-18T15:21:05.666Z,7.78
2023-04-18T15:23:34.339Z,9.60
2023-04-18T15:26:01.252Z,8.77
2023-04-18T15:28:28.343Z,8.88
2023-04-18T15:30:55.261Z,9.05
2023-04-18T15:33:24.111Z,10.77
2023-04-18T15:35:51.116Z,7.17
2023-04-18T15:38:18.184Z,9.07
2023-04-18T15:40:45.325Z,9.07
2023-04-18T15:43:13.962Z,9.95
2023-04-18T15:45:41.620Z,10.20
2023-04-18T15:48:08.541Z,10.40
2023-04-18T15:50:36.243Z,10.77
2023-04-18T15:53:03.126Z,11.93
2023-04-18T15:55:30.051Z,10.43
2023-04-18T15:57:57.129Z,12.57
2023-04-18T16:00:24.217Z,10.73
2023-04-18T16:02:51.529Z,10.55
2023-04-18T16:05:22.281Z,10.45
2023-04-18T16:07:49.247Z,11.40
2023-04-18T16:10:16.195Z,10.10
2023-04-18T16:12:44.560Z,11.25
2023-04-18T16:15:12.008Z,12.90
2023-04-18T16:17:39.124Z,11.00
2023-04-18T16:20:08.586Z,11.70
2023-04-18T16:22:35.814Z,10.98
2023-04-18T16:25:04.062Z,13.05
2023-04-18T16:27:30.970Z,12.60
2023-04-18T16:29:57.939Z,12.10
2023-04-18T16:32:26.976Z,14.38
2023-04-18T16:34:56.051Z,13.07
2023-04-18T16:37:22.933Z,13.27
2023-04-18T16:39:49.858Z,12.82
2023-04-18T16:42:17.170Z,14.05
2023-04-18T16:44:45.567Z,14.98
2023-04-18T16:47:12.500Z,14.30
2023-04-18T16:49:40.302Z,12.32
2023-04-18T16:52:07.325Z,14.77
2023-04-18T16:54:34.334Z,14.55
2023-04-18T16:57:03.943Z,14.65
2023-04-18T16:59:33.125Z,16.25
2023-04-18T17:02:00.234Z,16.17
2023-04-18T17:04:27.646Z,15.27
2023-04-18T17:06:54.836Z,17.00
2023-04-18T17:09:21.763Z,14.85
2023-04-18T17:11:49.631Z,13.90
2023-04-18T17:14:17.638Z,12.88
2023-04-18T17:16:46.718Z,11.95
2023-04-18T17:19:13.980Z,12.63
2023-04-18T17:21:43.350Z,9.73
2023-04-18T17:24:10.284Z,11.13
2023-04-18T17:26:39.170Z,6.12
2023-04-18T17:29:06.159Z,4.00
2023-04-18T17:31:33.410Z,4.10
2023-04-18T17:34:02.984Z,3.70
2023-04-18T17:36:30.113Z,4.03
2023-04-18T17:38:58.444Z,4.43
2023-04-18T17:41:27.600Z,4.97
2023-04-18T17:43:54.492Z,3.20
2023-04-18T17:46:23.522Z,2.08
2023-04-18T17:48:50.431Z,2.90
2023-04-18T17:51:21.498Z,2.80
2023-04-18T17:53:48.442Z,4.20
2023-04-18T17:56:15.377Z,3.62
2023-04-18T17:58:44.495Z,4.90
2023-04-18T18:01:15.695Z,4.30
2023-04-18T18:03:44.858Z,4.12
2023-04-18T18:06:13.166Z,4.80
2023-04-18T18:08:40.305Z,3.75
2023-04-18T18:11:07.861Z,4.32
2023-04-18T18:13:35.886Z,4.80
2023-04-18T18:16:03.693Z,3.42
2023-04-18T18:18:31.562Z,5.28
2023-04-18T18:20:59.137Z,5.30
2023-04-18T18:23:28.129Z,5.05
2023-04-18T18:25:55.054Z,9.30
2023-04-18T18:28:23.991Z,7.87
2023-04-18T18:30:51.001Z,10.90
2023-04-18T18:33:20.068Z,10.80
2023-04-18T18:35:46.953Z,6.10
2023-04-18T18:38:16.298Z,5.15
2023-04-18T18:40:43.315Z,5.12
2023-04-18T18:43:10.270Z,9.65
2023-04-18T18:45:40.544Z,10.07
2023-04-18T18:48:07.572Z,7.07
2023-04-18T18:50:36.752Z,4.80
2023-04-18T18:53:03.715Z,5.87
2023-04-18T18:55:32.797Z,5.20
2023-04-18T18:57:59.704Z,4.87
2023-04-18T19:00:26.879Z,5.60
2023-04-18T19:02:56.181Z,5.87
2023-04-18T19:05:23.486Z,4.72
2023-04-18T19:07:53.830Z,7.55
2023-04-18T19:10:41.953Z,8.00
2023-04-18T19:13:10.575Z,5.18
2023-04-18T19:15:37.531Z,5.07
2023-04-18T19:18:04.686Z,4.97
2023-04-18T19:20:33.031Z,6.05
2023-04-18T19:22:59.901Z,6.97
2023-04-18T19:25:27.832Z,6.22
2023-04-18T19:27:54.757Z,5.78
2023-04-18T19:30:21.702Z,10.02
2023-04-18T19:32:50.682Z,12.37
2023-04-18T19:35:17.715Z,9.73
2023-04-18T19:37:46.609Z,11.30
2023-04-18T19:40:14.437Z,7.87
2023-04-18T19:42:41.341Z,7.72
2023-04-18T19:45:10.720Z,6.07
2023-04-18T19:47:38.206Z,4.60
2023-04-18T19:50:07.938Z,4.12
2023-04-18T19:52:34.834Z,4.82
2023-04-18T19:55:03.884Z,4.05
2023-04-18T19:57:31.040Z,3.47
2023-04-18T19:59:57.890Z,3.80
2023-04-18T20:02:26.926Z,3.65
2023-04-18T20:04:54.054Z,3.00
2023-04-18T20:07:24.219Z,4.00
2023-04-18T20:09:53.314Z,3.83
2023-04-18T20:12:22.236Z,2.70
2023-04-18T20:14:49.239Z,4.03
2023-04-18T20:17:16.251Z,4.00
2023-04-18T20:19:45.347Z,3.25
2023-04-18T20:22:12.271Z,2.10
2023-04-18T20:24:40.872Z,2.30
2023-04-18T20:27:08.240Z,2.33
2023-04-18T20:29:37.200Z,2.40
2023-04-18T20:32:04.268Z,3.00
2023-04-18T20:34:31.713Z,3.67
2023-04-18T20:37:01.923Z,3.78
2023-04-18T20:39:28.894Z,5.10
2023-04-18T20:41:57.881Z,4.07
2023-04-18T20:44:27.085Z,4.22
2023-04-18T20:46:56.064Z,3.67
2023-04-18T20:49:23.082Z,4.30
2023-04-18T20:51:50.071Z,7.28
2023-04-18T20:54:18.292Z,4.65
2023-04-18T20:56:45.220Z,2.70
2023-04-18T20:59:14.127Z,3.67
2023-04-18T21:01:41.485Z,7.63
2023-04-18T21:04:10.567Z,3.12
2023-04-18T21:06:37.634Z,3.37
2023-04-18T21:09:04.588Z,3.53
2023-04-18T21:11:33.335Z,3.80
2023-04-18T21:14:00.368Z,4.35
2023-04-18T21:16:27.360Z,4.43
2023-04-18T21:18:57.359Z,4.00
2023-04-18T21:21:26.637Z,4.93
2023-04-18T21:23:53.536Z,3.28
2023-04-18T21:26:20.565Z,4.95
2023-04-18T21:28:54.221Z,3.72
2023-04-18T21:31:21.215Z,3.25
2023-04-18T21:33:48.804Z,3.55
2023-04-18T21:36:15.767Z,2.75
2023-04-18T21:38:42.683Z,3.60
2023-04-18T21:41:09.602Z,2.55
2023-04-18T21:43:36.534Z,3.95
2023-04-18T21:46:03.478Z,3.87
2023-04-18T21:48:30.392Z,4.82
2023-04-18T21:50:57.318Z,4.32
2023-04-18T21:53:24.299Z,4.75
2023-04-18T21:55:51.299Z,4.35
2023-04-18T21:58:18.216Z,4.28
2023-04-18T22:00:45.199Z,4.37
2023-04-18T22:03:12.428Z,5.07
2023-04-18T22:05:40.283Z,4.90
2023-04-18T22:08:07.605Z,5.00
2023-04-18T22:10:35.437Z,4.65
2023-04-18T22:13:05.472Z,5.10
2023-04-18T22:15:33.086Z,5.45
2023-04-18T22:18:00.250Z,5.93
2023-04-18T22:20:27.262Z,5.70
2023-04-18T22:22:54.804Z,7.32
2023-04-18T22:25:21.772Z,6.90
2023-04-18T22:27:48.732Z,7.03
2023-04-18T22:30:15.973Z,6.60
2023-04-18T22:32:42.964Z,6.90
2023-04-18T22:35:10.204Z,7.00
2023-04-18T22:37:37.207Z,6.60
2023-04-18T22:40:07.488Z,6.82
2023-04-18T22:42:36.148Z,7.07
2023-04-18T22:47:31.402Z,7.35
2023-04-18T22:49:58.319Z,8.32
2023-04-18T22:52:25.746Z,8.05
2023-04-18T22:54:53.333Z,7.60
2023-04-18T22:57:20.251Z,8.07
2023-04-18T22:59:47.245Z,8.07
2023-04-18T23:02:14.407Z,7.87
2023-04-18T23:04:42.512Z,9.25
2023-04-18T23:07:09.602Z,9.93
2023-04-18T23:09:36.679Z,10.13
2023-04-18T23:12:03.834Z,9.88
2023-04-18T23:14:30.958Z,10.18
2023-04-18T23:16:58.045Z,10.48
2023-04-18T23:19:25.014Z,10.55
2023-04-18T23:21:52.008Z,9.48
2023-04-18T23:24:18.971Z,8.68
2023-04-18T23:26:46.348Z,11.00
2023-04-18T23:29:13.379Z,9.18
2023-04-18T23:31:41.173Z,10.05
2023-04-18T23:34:08.161Z,8.52
2023-04-18T23:36:35.152Z,9.88
2023-04-18T23:39:02.403Z,10.25
2023-04-18T23:41:29.425Z,9.95
2023-04-18T23:43:56.377Z,10.23
2023-04-18T23:46:23.449Z,10.43
2023-04-18T23:48:50.524Z,10.15
2023-04-18T23:51:17.424Z,10.32
2023-04-18T23:53:44.385Z,10.43
2023-04-18T23:56:11.231Z,9.82
2023-04-18T23:58:38.197Z,9.35
